sensor_id;sensor_type;location;lat;lon;timestamp;temperature;humidity
72468;SHT30;60626;43.582;1.470;2022-07-29T00:00:12;26.77;48.28
72468;SHT30;60626;43.582;1.470;2022-07-29T00:02:39;26.74;48.34
72468;SHT30;60626;43.582;1.470;2022-07-29T00:05:07;26.72;48.12
72468;SHT30;60626;43.582;1.470;2022-07-29T00:07:34;26.72;48.67
72468;SHT30;60626;43.582;1.470;2022-07-29T00:10:01;26.74;49.14
72468;SHT30;60626;43.582;1.470;2022-07-29T00:12:28;26.71;50.60
72468;SHT30;60626;43.582;1.470;2022-07-29T00:14:56;26.68;51.47
72468;SHT30;60626;43.582;1.470;2022-07-29T00:17:23;26.62;52.15
72468;SHT30;60626;43.582;1.470;2022-07-29T00:19:50;26.57;51.00
72468;SHT30;60626;43.582;1.470;2022-07-29T00:22:18;26.52;52.35
72468;SHT30;60626;43.582;1.470;2022-07-29T00:24:47;26.50;51.99
72468;SHT30;60626;43.582;1.470;2022-07-29T00:27:15;26.45;52.47
72468;SHT30;60626;43.582;1.470;2022-07-29T00:29:42;26.43;52.42
72468;SHT30;60626;43.582;1.470;2022-07-29T00:32:08;26.39;51.95
72468;SHT30;60626;43.582;1.470;2022-07-29T00:34:35;26.34;51.29
72468;SHT30;60626;43.582;1.470;2022-07-29T00:37:20;26.29;51.23
72468;SHT30;60626;43.582;1.470;2022-07-29T00:39:47;26.26;51.05
72468;SHT30;60626;43.582;1.470;2022-07-29T00:42:14;26.27;50.42
72468;SHT30;60626;43.582;1.470;2022-07-29T00:44:41;26.20;50.54
72468;SHT30;60626;43.582;1.470;2022-07-29T00:47:09;26.17;50.22
72468;SHT30;60626;43.582;1.470;2022-07-29T00:49:38;26.19;49.91
72468;SHT30;60626;43.582;1.470;2022-07-29T00:52:07;26.19;49.87
72468;SHT30;60626;43.582;1.470;2022-07-29T00:54:35;26.12;49.55
72468;SHT30;60626;43.582;1.470;2022-07-29T00:57:09;26.12;49.62
72468;SHT30;60626;43.582;1.470;2022-07-29T00:59:35;26.09;49.20
72468;SHT30;60626;43.582;1.470;2022-07-29T01:02:03;26.10;49.36
72468;SHT30;60626;43.582;1.470;2022-07-29T01:04:30;26.12;49.56
72468;SHT30;60626;43.582;1.470;2022-07-29T01:06:58;26.14;49.43
72468;SHT30;60626;43.582;1.470;2022-07-29T01:09:26;26.14;49.00
72468;SHT30;60626;43.582;1.470;2022-07-29T01:12:13;26.16;49.00
72468;SHT30;60626;43.582;1.470;2022-07-29T01:14:41;26.10;49.09
72468;SHT30;60626;43.582;1.470;2022-07-29T01:17:24;26.09;49.23
72468;SHT30;60626;43.582;1.470;2022-07-29T01:28:42;26.00;49.73
72468;SHT30;60626;43.582;1.470;2022-07-29T01:31:16;26.02;49.43
72468;SHT30;60626;43.582;1.470;2022-07-29T01:33:57;25.99;49.22
72468;SHT30;60626;43.582;1.470;2022-07-29T01:36:35;25.99;48.95
72468;SHT30;60626;43.582;1.470;2022-07-29T01:39:12;25.95;48.98
72468;SHT30;60626;43.582;1.470;2022-07-29T01:41:48;25.89;49.04
72468;SHT30;60626;43.582;1.470;2022-07-29T01:44:24;25.90;49.07
72468;SHT30;60626;43.582;1.470;2022-07-29T01:46:56;25.88;48.76
72468;SHT30;60626;43.582;1.470;2022-07-29T01:49:28;25.85;48.81
72468;SHT30;60626;43.582;1.470;2022-07-29T01:52:05;25.81;49.06
72468;SHT30;60626;43.582;1.470;2022-07-29T01:54:42;25.78;49.00
72468;SHT30;60626;43.582;1.470;2022-07-29T01:57:14;25.74;49.02
72468;SHT30;60626;43.582;1.470;2022-07-29T01:59:45;25.69;49.16
72468;SHT30;60626;43.582;1.470;2022-07-29T02:02:15;25.71;49.18
72468;SHT30;60626;43.582;1.470;2022-07-29T02:04:44;25.74;49.18
72468;SHT30;60626;43.582;1.470;2022-07-29T02:07:20;25.76;49.26
72468;SHT30;60626;43.582;1.470;2022-07-29T02:09:49;25.79;49.08
72468;SHT30;60626;43.582;1.470;2022-07-29T02:12:18;25.82;49.02
72468;SHT30;60626;43.582;1.470;2022-07-29T02:14:48;25.79;49.15
72468;SHT30;60626;43.582;1.470;2022-07-29T02:17:21;25.79;48.92
72468;SHT30;60626;43.582;1.470;2022-07-29T02:19:49;25.78;49.19
72468;SHT30;60626;43.582;1.470;2022-07-29T02:22:18;25.78;49.22
72468;SHT30;60626;43.582;1.470;2022-07-29T02:24:47;25.79;49.34
72468;SHT30;60626;43.582;1.470;2022-07-29T02:27:17;25.79;49.01
72468;SHT30;60626;43.582;1.470;2022-07-29T02:29:45;25.78;48.82
72468;SHT30;60626;43.582;1.470;2022-07-29T02:32:14;25.69;49.01
72468;SHT30;60626;43.582;1.470;2022-07-29T02:34:43;25.68;48.97
72468;SHT30;60626;43.582;1.470;2022-07-29T02:37:11;25.68;49.09
72468;SHT30;60626;43.582;1.470;2022-07-29T02:39:41;25.67;49.28
72468;SHT30;60626;43.582;1.470;2022-07-29T02:42:12;25.65;49.33
72468;SHT30;60626;43.582;1.470;2022-07-29T02:44:40;25.67;48.93
72468;SHT30;60626;43.582;1.470;2022-07-29T02:52:39;25.57;49.10
72468;SHT30;60626;43.582;1.470;2022-07-29T03:00:41;25.51;49.45
72468;SHT30;60626;43.582;1.470;2022-07-29T03:03:13;25.51;49.49
72468;SHT30;60626;43.582;1.470;2022-07-29T03:05:41;25.52;49.20
72468;SHT30;60626;43.582;1.470;2022-07-29T03:08:10;25.57;49.33
72468;SHT30;60626;43.582;1.470;2022-07-29T03:10:39;25.51;49.32
72468;SHT30;60626;43.582;1.470;2022-07-29T03:13:07;25.51;49.48
72468;SHT30;60626;43.582;1.470;2022-07-29T03:15:34;25.51;49.46
72468;SHT30;60626;43.582;1.470;2022-07-29T03:18:02;25.50;49.48
72468;SHT30;60626;43.582;1.470;2022-07-29T03:20:29;25.47;49.41
72468;SHT30;60626;43.582;1.470;2022-07-29T03:22:55;25.48;49.63
72468;SHT30;60626;43.582;1.470;2022-07-29T03:25:22;25.44;49.54
72468;SHT30;60626;43.582;1.470;2022-07-29T03:27:49;25.45;49.44
72468;SHT30;60626;43.582;1.470;2022-07-29T03:30:16;25.48;49.69
72468;SHT30;60626;43.582;1.470;2022-07-29T03:32:48;25.48;49.49
72468;SHT30;60626;43.582;1.470;2022-07-29T03:35:19;25.50;49.72
72468;SHT30;60626;43.582;1.470;2022-07-29T03:37:46;25.48;49.59
72468;SHT30;60626;43.582;1.470;2022-07-29T03:40:21;25.47;49.85
72468;SHT30;60626;43.582;1.470;2022-07-29T03:42:51;25.48;50.00
72468;SHT30;60626;43.582;1.470;2022-07-29T03:45:21;25.48;49.71
72468;SHT30;60626;43.582;1.470;2022-07-29T03:47:54;25.47;49.66
72468;SHT30;60626;43.582;1.470;2022-07-29T03:50:27;25.45;49.92
72468;SHT30;60626;43.582;1.470;2022-07-29T03:52:55;25.41;50.05
72468;SHT30;60626;43.582;1.470;2022-07-29T03:55:22;25.37;50.25
72468;SHT30;60626;43.582;1.470;2022-07-29T03:57:49;25.37;50.35
72468;SHT30;60626;43.582;1.470;2022-07-29T04:00:17;25.38;50.29
72468;SHT30;60626;43.582;1.470;2022-07-29T04:02:44;25.37;50.31
72468;SHT30;60626;43.582;1.470;2022-07-29T04:05:17;25.37;50.12
72468;SHT30;60626;43.582;1.470;2022-07-29T04:07:45;25.35;50.42
72468;SHT30;60626;43.582;1.470;2022-07-29T04:10:13;25.34;50.34
72468;SHT30;60626;43.582;1.470;2022-07-29T04:12:40;25.31;50.02
72468;SHT30;60626;43.582;1.470;2022-07-29T04:15:07;25.31;49.94
72468;SHT30;60626;43.582;1.470;2022-07-29T04:17:34;25.23;50.25
72468;SHT30;60626;43.582;1.470;2022-07-29T04:20:00;25.26;50.70
72468;SHT30;60626;43.582;1.470;2022-07-29T04:22:27;25.20;51.16
72468;SHT30;60626;43.582;1.470;2022-07-29T04:24:54;25.14;51.68
72468;SHT30;60626;43.582;1.470;2022-07-29T04:27:25;25.07;50.98
72468;SHT30;60626;43.582;1.470;2022-07-29T04:29:52;25.00;51.54
72468;SHT30;60626;43.582;1.470;2022-07-29T04:32:23;24.92;51.49
72468;SHT30;60626;43.582;1.470;2022-07-29T04:34:50;24.79;52.49
72468;SHT30;60626;43.582;1.470;2022-07-29T04:37:17;24.71;52.50
72468;SHT30;60626;43.582;1.470;2022-07-29T04:39:43;24.65;52.85
72468;SHT30;60626;43.582;1.470;2022-07-29T04:42:10;24.62;53.21
72468;SHT30;60626;43.582;1.470;2022-07-29T04:44:38;24.59;53.72
72468;SHT30;60626;43.582;1.470;2022-07-29T04:47:08;24.58;53.90
72468;SHT30;60626;43.582;1.470;2022-07-29T04:49:38;24.56;53.65
72468;SHT30;60626;43.582;1.470;2022-07-29T04:52:05;24.54;53.16
72468;SHT30;60626;43.582;1.470;2022-07-29T04:54:32;24.54;54.26
72468;SHT30;60626;43.582;1.470;2022-07-29T04:56:59;24.48;53.76
72468;SHT30;60626;43.582;1.470;2022-07-29T04:59:26;24.42;55.87
72468;SHT30;60626;43.582;1.470;2022-07-29T05:01:53;24.41;56.01
72468;SHT30;60626;43.582;1.470;2022-07-29T05:04:20;24.38;56.03
72468;SHT30;60626;43.582;1.470;2022-07-29T05:06:47;24.42;55.70
72468;SHT30;60626;43.582;1.470;2022-07-29T05:09:14;24.42;56.06
72468;SHT30;60626;43.582;1.470;2022-07-29T05:11:40;24.41;56.74
72468;SHT30;60626;43.582;1.470;2022-07-29T05:14:07;24.45;56.69
72468;SHT30;60626;43.582;1.470;2022-07-29T05:16:34;24.44;56.95
72468;SHT30;60626;43.582;1.470;2022-07-29T05:19:00;24.45;56.89
72468;SHT30;60626;43.582;1.470;2022-07-29T05:21:27;24.48;56.82
72468;SHT30;60626;43.582;1.470;2022-07-29T05:23:54;24.48;56.77
72468;SHT30;60626;43.582;1.470;2022-07-29T05:26:21;24.47;57.12
72468;SHT30;60626;43.582;1.470;2022-07-29T05:28:47;24.44;57.71
72468;SHT30;60626;43.582;1.470;2022-07-29T05:31:14;24.42;56.21
72468;SHT30;60626;43.582;1.470;2022-07-29T05:33:41;24.34;59.24
72468;SHT30;60626;43.582;1.470;2022-07-29T05:36:08;24.31;59.24
72468;SHT30;60626;43.582;1.470;2022-07-29T05:38:35;24.22;59.34
72468;SHT30;60626;43.582;1.470;2022-07-29T05:41:03;24.13;60.25
72468;SHT30;60626;43.582;1.470;2022-07-29T05:43:30;24.06;58.02
72468;SHT30;60626;43.582;1.470;2022-07-29T05:45:57;23.99;59.92
72468;SHT30;60626;43.582;1.470;2022-07-29T05:48:24;23.96;60.84
72468;SHT30;60626;43.582;1.470;2022-07-29T05:50:51;23.92;60.39
72468;SHT30;60626;43.582;1.470;2022-07-29T05:53:18;23.89;58.86
72468;SHT30;60626;43.582;1.470;2022-07-29T05:55:47;23.87;61.26
72468;SHT30;60626;43.582;1.470;2022-07-29T05:58:14;23.82;60.57
72468;SHT30;60626;43.582;1.470;2022-07-29T06:00:40;23.83;61.40
72468;SHT30;60626;43.582;1.470;2022-07-29T06:03:07;23.84;61.74
72468;SHT30;60626;43.582;1.470;2022-07-29T06:05:34;23.82;59.50
72468;SHT30;60626;43.582;1.470;2022-07-29T06:08:01;23.76;61.66
72468;SHT30;60626;43.582;1.470;2022-07-29T06:10:27;23.74;61.58
72468;SHT30;60626;43.582;1.470;2022-07-29T06:12:54;23.74;62.29
72468;SHT30;60626;43.582;1.470;2022-07-29T06:15:21;23.76;62.20
72468;SHT30;60626;43.582;1.470;2022-07-29T06:17:47;23.77;61.59
72468;SHT30;60626;43.582;1.470;2022-07-29T06:20:26;23.77;62.74
72468;SHT30;60626;43.582;1.470;2022-07-29T06:22:56;23.79;62.90
72468;SHT30;60626;43.582;1.470;2022-07-29T06:25:23;23.79;60.83
72468;SHT30;60626;43.582;1.470;2022-07-29T06:27:50;23.73;63.19
72468;SHT30;60626;43.582;1.470;2022-07-29T06:30:17;23.67;62.90
72468;SHT30;60626;43.582;1.470;2022-07-29T06:32:43;23.66;63.53
72468;SHT30;60626;43.582;1.470;2022-07-29T06:35:10;23.69;61.93
72468;SHT30;60626;43.582;1.470;2022-07-29T06:37:57;23.67;62.57
72468;SHT30;60626;43.582;1.470;2022-07-29T06:40:25;23.65;63.40
72468;SHT30;60626;43.582;1.470;2022-07-29T06:43:10;23.70;62.90
72468;SHT30;60626;43.582;1.470;2022-07-29T06:45:37;23.70;62.64
72468;SHT30;60626;43.582;1.470;2022-07-29T06:48:08;23.73;63.15
72468;SHT30;60626;43.582;1.470;2022-07-29T06:50:35;23.82;62.91
72468;SHT30;60626;43.582;1.470;2022-07-29T06:53:03;23.79;62.44
72468;SHT30;60626;43.582;1.470;2022-07-29T06:55:29;23.80;62.40
72468;SHT30;60626;43.582;1.470;2022-07-29T06:57:56;23.77;62.63
72468;SHT30;60626;43.582;1.470;2022-07-29T07:00:23;23.77;63.39
72468;SHT30;60626;43.582;1.470;2022-07-29T07:02:50;23.79;63.28
72468;SHT30;60626;43.582;1.470;2022-07-29T07:05:16;23.74;63.53
72468;SHT30;60626;43.582;1.470;2022-07-29T07:07:43;23.74;62.04
72468;SHT30;60626;43.582;1.470;2022-07-29T07:10:10;23.72;63.48
72468;SHT30;60626;43.582;1.470;2022-07-29T07:12:37;23.70;63.12
72468;SHT30;60626;43.582;1.470;2022-07-29T07:15:04;23.65;63.08
72468;SHT30;60626;43.582;1.470;2022-07-29T07:17:30;23.66;63.98
72468;SHT30;60626;43.582;1.470;2022-07-29T07:19:57;23.67;63.26
72468;SHT30;60626;43.582;1.470;2022-07-29T07:22:24;23.69;63.97
72468;SHT30;60626;43.582;1.470;2022-07-29T07:24:51;23.70;63.50
72468;SHT30;60626;43.582;1.470;2022-07-29T07:27:17;23.69;62.30
72468;SHT30;60626;43.582;1.470;2022-07-29T07:29:44;23.65;63.16
72468;SHT30;60626;43.582;1.470;2022-07-29T07:32:11;23.61;63.82
72468;SHT30;60626;43.582;1.470;2022-07-29T07:34:39;23.63;62.57
72468;SHT30;60626;43.582;1.470;2022-07-29T07:37:06;23.62;63.33
72468;SHT30;60626;43.582;1.470;2022-07-29T07:39:32;23.66;63.95
72468;SHT30;60626;43.582;1.470;2022-07-29T07:41:59;23.72;63.75
72468;SHT30;60626;43.582;1.470;2022-07-29T07:44:26;23.76;63.38
72468;SHT30;60626;43.582;1.470;2022-07-29T07:46:53;23.77;63.96
72468;SHT30;60626;43.582;1.470;2022-07-29T07:49:20;23.86;63.51
72468;SHT30;60626;43.582;1.470;2022-07-29T07:51:47;23.90;61.88
72468;SHT30;60626;43.582;1.470;2022-07-29T07:54:16;23.87;62.22
72468;SHT30;60626;43.582;1.470;2022-07-29T07:56:44;23.87;62.93
72468;SHT30;60626;43.582;1.470;2022-07-29T07:59:10;23.90;63.80
72468;SHT30;60626;43.582;1.470;2022-07-29T08:01:37;23.89;63.43
72468;SHT30;60626;43.582;1.470;2022-07-29T08:04:21;23.87;63.34
72468;SHT30;60626;43.582;1.470;2022-07-29T08:06:54;23.90;63.11
72468;SHT30;60626;43.582;1.470;2022-07-29T08:09:21;23.90;62.58
72468;SHT30;60626;43.582;1.470;2022-07-29T08:11:56;23.92;62.46
72468;SHT30;60626;43.582;1.470;2022-07-29T08:14:24;23.89;62.87
72468;SHT30;60626;43.582;1.470;2022-07-29T08:16:51;23.89;62.72
72468;SHT30;60626;43.582;1.470;2022-07-29T08:19:18;23.90;63.33
72468;SHT30;60626;43.582;1.470;2022-07-29T08:21:45;23.89;63.40
72468;SHT30;60626;43.582;1.470;2022-07-29T08:24:12;23.97;62.54
72468;SHT30;60626;43.582;1.470;2022-07-29T08:26:57;23.93;61.73
72468;SHT30;60626;43.582;1.470;2022-07-29T08:29:24;23.87;61.89
72468;SHT30;60626;43.582;1.470;2022-07-29T08:31:50;23.87;63.02
72468;SHT30;60626;43.582;1.470;2022-07-29T08:34:18;23.90;63.26
72468;SHT30;60626;43.582;1.470;2022-07-29T08:36:52;23.93;62.68
72468;SHT30;60626;43.582;1.470;2022-07-29T08:39:19;23.97;62.44
72468;SHT30;60626;43.582;1.470;2022-07-29T08:41:46;23.97;61.88
72468;SHT30;60626;43.582;1.470;2022-07-29T08:44:23;23.89;62.28
72468;SHT30;60626;43.582;1.470;2022-07-29T08:46:56;23.86;62.00
72468;SHT30;60626;43.582;1.470;2022-07-29T08:49:24;23.77;62.18
72468;SHT30;60626;43.582;1.470;2022-07-29T08:51:51;23.77;62.54
72468;SHT30;60626;43.582;1.470;2022-07-29T08:54:21;23.79;62.56
72468;SHT30;60626;43.582;1.470;2022-07-29T08:56:50;23.80;63.10
72468;SHT30;60626;43.582;1.470;2022-07-29T08:59:22;23.80;63.12
72468;SHT30;60626;43.582;1.470;2022-07-29T09:01:52;23.84;62.66
72468;SHT30;60626;43.582;1.470;2022-07-29T09:04:21;23.86;62.76
72468;SHT30;60626;43.582;1.470;2022-07-29T09:06:51;23.87;62.59
72468;SHT30;60626;43.582;1.470;2022-07-29T09:09:18;23.89;62.13
72468;SHT30;60626;43.582;1.470;2022-07-29T09:11:45;23.92;62.58
72468;SHT30;60626;43.582;1.470;2022-07-29T09:14:13;23.93;62.33
72468;SHT30;60626;43.582;1.470;2022-07-29T09:16:54;23.94;62.79
72468;SHT30;60626;43.582;1.470;2022-07-29T09:19:33;24.00;63.13
72468;SHT30;60626;43.582;1.470;2022-07-29T09:22:05;24.04;62.51
72468;SHT30;60626;43.582;1.470;2022-07-29T09:27:21;24.14;63.11
72468;SHT30;60626;43.582;1.470;2022-07-29T09:30:17;24.20;62.57
72468;SHT30;60626;43.582;1.470;2022-07-29T09:32:58;24.27;62.62
72468;SHT30;60626;43.582;1.470;2022-07-29T09:35:28;24.28;61.77
72468;SHT30;60626;43.582;1.470;2022-07-29T09:37:55;24.32;61.95
72468;SHT30;60626;43.582;1.470;2022-07-29T09:40:24;24.42;62.14
72468;SHT30;60626;43.582;1.470;2022-07-29T09:42:51;24.48;62.68
72468;SHT30;60626;43.582;1.470;2022-07-29T09:45:33;24.52;61.96
72468;SHT30;60626;43.582;1.470;2022-07-29T09:48:14;24.58;62.52
72468;SHT30;60626;43.582;1.470;2022-07-29T09:50:42;24.62;62.30
72468;SHT30;60626;43.582;1.470;2022-07-29T09:53:10;24.71;61.81
72468;SHT30;60626;43.582;1.470;2022-07-29T09:55:48;24.76;61.33
72468;SHT30;60626;43.582;1.470;2022-07-29T09:58:18;24.87;61.44
72468;SHT30;60626;43.582;1.470;2022-07-29T10:00:46;25.07;61.73
72468;SHT30;60626;43.582;1.470;2022-07-29T10:03:15;25.37;61.33
72468;SHT30;60626;43.582;1.470;2022-07-29T10:05:43;25.64;60.06
72468;SHT30;60626;43.582;1.470;2022-07-29T10:08:11;25.78;59.29
72468;SHT30;60626;43.582;1.470;2022-07-29T10:10:41;25.95;59.22
72468;SHT30;60626;43.582;1.470;2022-07-29T10:13:11;26.14;59.15
72468;SHT30;60626;43.582;1.470;2022-07-29T10:15:43;26.26;57.57
72468;SHT30;60626;43.582;1.470;2022-07-29T10:18:12;26.29;57.72
72468;SHT30;60626;43.582;1.470;2022-07-29T10:20:40;26.36;57.33
72468;SHT30;60626;43.582;1.470;2022-07-29T10:23:07;26.51;56.95
72468;SHT30;60626;43.582;1.470;2022-07-29T10:25:35;26.61;56.61
72468;SHT30;60626;43.582;1.470;2022-07-29T10:28:02;26.62;55.76
72468;SHT30;60626;43.582;1.470;2022-07-29T10:30:29;26.65;55.73
72468;SHT30;60626;43.582;1.470;2022-07-29T10:35:51;26.92;54.67
72468;SHT30;60626;43.582;1.470;2022-07-29T10:41:24;27.06;53.45
72468;SHT30;60626;43.582;1.470;2022-07-29T10:44:15;27.16;53.52
72468;SHT30;60626;43.582;1.470;2022-07-29T10:46:50;27.25;53.59
72468;SHT30;60626;43.582;1.470;2022-07-29T10:54:18;27.30;53.03
72468;SHT30;60626;43.582;1.470;2022-07-29T10:56:45;27.36;52.16
72468;SHT30;60626;43.582;1.470;2022-07-29T11:01:49;27.46;52.49
72468;SHT30;60626;43.582;1.470;2022-07-29T11:07:12;27.67;52.78
72468;SHT30;60626;43.582;1.470;2022-07-29T11:09:40;27.74;52.25
72468;SHT30;60626;43.582;1.470;2022-07-29T11:15:06;27.87;51.21
72468;SHT30;60626;43.582;1.470;2022-07-29T11:20:43;27.80;51.00
72468;SHT30;60626;43.582;1.470;2022-07-29T11:31:19;27.76;50.84
72468;SHT30;60626;43.582;1.470;2022-07-29T11:33:46;27.72;50.96
72468;SHT30;60626;43.582;1.470;2022-07-29T11:36:22;27.71;51.75
72468;SHT30;60626;43.582;1.470;2022-07-29T11:39:26;27.67;51.46
72468;SHT30;60626;43.582;1.470;2022-07-29T11:45:17;27.77;51.64
72468;SHT30;60626;43.582;1.470;2022-07-29T11:48:04;27.76;51.47
72468;SHT30;60626;43.582;1.470;2022-07-29T11:50:52;27.76;51.56
72468;SHT30;60626;43.582;1.470;2022-07-29T11:53:19;27.78;51.83
72468;SHT30;60626;43.582;1.470;2022-07-29T11:55:47;27.78;51.86
72468;SHT30;60626;43.582;1.470;2022-07-29T11:58:22;27.68;51.66
72468;SHT30;60626;43.582;1.470;2022-07-29T12:00:52;27.70;51.10
72468;SHT30;60626;43.582;1.470;2022-07-29T12:03:27;27.67;50.60
72468;SHT30;60626;43.582;1.470;2022-07-29T12:06:15;27.65;50.36
72468;SHT30;60626;43.582;1.470;2022-07-29T12:08:43;27.62;49.85
72468;SHT30;60626;43.582;1.470;2022-07-29T12:11:18;27.60;50.70
72468;SHT30;60626;43.582;1.470;2022-07-29T12:13:47;27.50;49.20
72468;SHT30;60626;43.582;1.470;2022-07-29T12:16:15;27.42;49.14
72468;SHT30;60626;43.582;1.470;2022-07-29T12:19:01;27.39;49.55
72468;SHT30;60626;43.582;1.470;2022-07-29T12:21:52;27.42;49.32
72468;SHT30;60626;43.582;1.470;2022-07-29T12:24:25;27.43;49.17
72468;SHT30;60626;43.582;1.470;2022-07-29T12:26:56;27.50;49.29
72468;SHT30;60626;43.582;1.470;2022-07-29T12:29:23;27.53;49.21
72468;SHT30;60626;43.582;1.470;2022-07-29T12:32:02;27.53;48.85
72468;SHT30;60626;43.582;1.470;2022-07-29T12:34:31;27.51;48.49
72468;SHT30;60626;43.582;1.470;2022-07-29T12:36:58;27.49;49.29
72468;SHT30;60626;43.582;1.470;2022-07-29T12:39:25;27.51;49.73
72468;SHT30;60626;43.582;1.470;2022-07-29T12:41:54;27.53;49.62
72468;SHT30;60626;43.582;1.470;2022-07-29T12:44:43;27.61;49.72
72468;SHT30;60626;43.582;1.470;2022-07-29T12:47:10;27.64;49.59
72468;SHT30;60626;43.582;1.470;2022-07-29T12:49:37;27.68;49.78
72468;SHT30;60626;43.582;1.470;2022-07-29T12:52:29;27.77;48.87
72468;SHT30;60626;43.582;1.470;2022-07-29T12:54:56;27.78;48.99
72468;SHT30;60626;43.582;1.470;2022-07-29T12:57:24;27.80;48.91
72468;SHT30;60626;43.582;1.470;2022-07-29T13:00:04;27.81;49.17
72468;SHT30;60626;43.582;1.470;2022-07-29T13:02:31;27.85;48.97
72468;SHT30;60626;43.582;1.470;2022-07-29T13:04:59;27.78;49.30
72468;SHT30;60626;43.582;1.470;2022-07-29T13:07:28;27.77;49.74
72468;SHT30;60626;43.582;1.470;2022-07-29T13:10:20;27.74;49.52
72468;SHT30;60626;43.582;1.470;2022-07-29T13:13:10;27.67;49.87
72468;SHT30;60626;43.582;1.470;2022-07-29T13:15:40;27.68;50.11
72468;SHT30;60626;43.582;1.470;2022-07-29T13:18:45;27.71;50.19
72468;SHT30;60626;43.582;1.470;2022-07-29T13:21:15;27.71;50.06
72468;SHT30;60626;43.582;1.470;2022-07-29T13:23:44;27.67;50.06
72468;SHT30;60626;43.582;1.470;2022-07-29T13:26:11;27.65;50.02
72468;SHT30;60626;43.582;1.470;2022-07-29T13:28:39;27.62;50.31
72468;SHT30;60626;43.582;1.470;2022-07-29T13:31:09;27.60;50.29
72468;SHT30;60626;43.582;1.470;2022-07-29T13:33:36;27.60;50.19
72468;SHT30;60626;43.582;1.470;2022-07-29T13:36:03;27.58;50.40
72468;SHT30;60626;43.582;1.470;2022-07-29T13:38:30;27.60;50.46
72468;SHT30;60626;43.582;1.470;2022-07-29T13:40:57;27.60;50.31
72468;SHT30;60626;43.582;1.470;2022-07-29T13:43:23;27.60;50.48
72468;SHT30;60626;43.582;1.470;2022-07-29T13:45:50;27.58;50.65
72468;SHT30;60626;43.582;1.470;2022-07-29T13:48:17;27.57;51.09
72468;SHT30;60626;43.582;1.470;2022-07-29T13:50:44;27.57;51.14
72468;SHT30;60626;43.582;1.470;2022-07-29T13:53:12;27.58;51.16
72468;SHT30;60626;43.582;1.470;2022-07-29T13:55:44;27.55;50.98
72468;SHT30;60626;43.582;1.470;2022-07-29T13:58:11;27.57;50.68
72468;SHT30;60626;43.582;1.470;2022-07-29T14:00:38;27.57;50.26
72468;SHT30;60626;43.582;1.470;2022-07-29T14:03:04;27.58;50.36
72468;SHT30;60626;43.582;1.470;2022-07-29T14:05:32;27.53;49.91
72468;SHT30;60626;43.582;1.470;2022-07-29T14:07:59;27.47;50.03
72468;SHT30;60626;43.582;1.470;2022-07-29T14:10:26;27.43;50.11
72468;SHT30;60626;43.582;1.470;2022-07-29T14:12:53;27.40;50.36
72468;SHT30;60626;43.582;1.470;2022-07-29T14:15:19;27.40;50.91
72468;SHT30;60626;43.582;1.470;2022-07-29T14:17:46;27.40;51.01
72468;SHT30;60626;43.582;1.470;2022-07-29T14:20:13;27.46;51.30
72468;SHT30;60626;43.582;1.470;2022-07-29T14:22:42;27.44;52.40
72468;SHT30;60626;43.582;1.470;2022-07-29T14:25:11;27.53;51.80
72468;SHT30;60626;43.582;1.470;2022-07-29T14:27:40;27.58;52.07
72468;SHT30;60626;43.582;1.470;2022-07-29T14:30:08;27.58;52.21
72468;SHT30;60626;43.582;1.470;2022-07-29T14:32:35;27.61;52.49
72468;SHT30;60626;43.582;1.470;2022-07-29T14:35:02;27.60;52.04
72468;SHT30;60626;43.582;1.470;2022-07-29T14:37:28;27.57;52.14
72468;SHT30;60626;43.582;1.470;2022-07-29T14:40:05;27.55;52.10
72468;SHT30;60626;43.582;1.470;2022-07-29T14:42:32;27.55;52.07
72468;SHT30;60626;43.582;1.470;2022-07-29T14:44:59;27.60;51.93
72468;SHT30;60626;43.582;1.470;2022-07-29T14:47:25;27.67;51.77
72468;SHT30;60626;43.582;1.470;2022-07-29T14:49:52;27.76;52.01
72468;SHT30;60626;43.582;1.470;2022-07-29T14:52:19;27.81;51.49
72468;SHT30;60626;43.582;1.470;2022-07-29T14:54:46;27.91;51.53
72468;SHT30;60626;43.582;1.470;2022-07-29T14:57:12;27.98;51.38
72468;SHT30;60626;43.582;1.470;2022-07-29T14:59:39;28.02;51.14
72468;SHT30;60626;43.582;1.470;2022-07-29T15:02:06;28.04;50.77
72468;SHT30;60626;43.582;1.470;2022-07-29T15:04:33;28.05;50.64
72468;SHT30;60626;43.582;1.470;2022-07-29T15:06:59;28.04;50.46
72468;SHT30;60626;43.582;1.470;2022-07-29T15:09:26;27.95;50.63
72468;SHT30;60626;43.582;1.470;2022-07-29T15:11:53;27.92;50.69
72468;SHT30;60626;43.582;1.470;2022-07-29T15:14:20;27.88;50.47
72468;SHT30;60626;43.582;1.470;2022-07-29T15:16:46;27.87;50.42
72468;SHT30;60626;43.582;1.470;2022-07-29T15:19:14;27.87;50.76
72468;SHT30;60626;43.582;1.470;2022-07-29T15:21:41;27.88;50.86
72468;SHT30;60626;43.582;1.470;2022-07-29T15:24:15;27.89;50.63
72468;SHT30;60626;43.582;1.470;2022-07-29T15:26:43;27.91;50.62
72468;SHT30;60626;43.582;1.470;2022-07-29T15:29:11;27.94;50.65
72468;SHT30;60626;43.582;1.470;2022-07-29T15:31:37;28.01;50.74
72468;SHT30;60626;43.582;1.470;2022-07-29T15:34:05;28.02;50.56
72468;SHT30;60626;43.582;1.470;2022-07-29T15:36:32;28.01;50.19
72468;SHT30;60626;43.582;1.470;2022-07-29T15:39:19;28.02;50.42
72468;SHT30;60626;43.582;1.470;2022-07-29T15:41:46;27.99;50.36
72468;SHT30;60626;43.582;1.470;2022-07-29T15:44:13;27.99;50.29
72468;SHT30;60626;43.582;1.470;2022-07-29T15:46:40;28.01;50.38
72468;SHT30;60626;43.582;1.470;2022-07-29T15:49:26;28.05;50.19
72468;SHT30;60626;43.582;1.470;2022-07-29T15:52:18;28.09;49.80
72468;SHT30;60626;43.582;1.470;2022-07-29T15:54:55;28.13;49.93
72468;SHT30;60626;43.582;1.470;2022-07-29T15:57:23;28.12;49.73
72468;SHT30;60626;43.582;1.470;2022-07-29T15:59:50;28.12;49.54
72468;SHT30;60626;43.582;1.470;2022-07-29T16:02:17;28.15;49.53
72468;SHT30;60626;43.582;1.470;2022-07-29T16:04:44;28.18;49.83
72468;SHT30;60626;43.582;1.470;2022-07-29T16:07:11;28.26;49.79
72468;SHT30;60626;43.582;1.470;2022-07-29T16:09:39;28.31;49.29
72468;SHT30;60626;43.582;1.470;2022-07-29T16:12:06;28.27;49.26
72468;SHT30;60626;43.582;1.470;2022-07-29T16:14:42;28.31;49.35
72468;SHT30;60626;43.582;1.470;2022-07-29T16:17:08;28.27;49.35
72468;SHT30;60626;43.582;1.470;2022-07-29T16:19:41;28.32;49.43
72468;SHT30;60626;43.582;1.470;2022-07-29T16:22:08;28.33;49.00
72468;SHT30;60626;43.582;1.470;2022-07-29T16:24:34;28.32;49.01
72468;SHT30;60626;43.582;1.470;2022-07-29T16:27:01;28.31;49.14
72468;SHT30;60626;43.582;1.470;2022-07-29T16:29:28;28.29;49.20
72468;SHT30;60626;43.582;1.470;2022-07-29T16:31:54;28.20;49.41
72468;SHT30;60626;43.582;1.470;2022-07-29T16:34:21;28.16;50.11
72468;SHT30;60626;43.582;1.470;2022-07-29T16:36:48;28.12;50.19
72468;SHT30;60626;43.582;1.470;2022-07-29T16:39:15;28.08;50.23
72468;SHT30;60626;43.582;1.470;2022-07-29T16:41:42;28.04;50.54